August Explorer — 7JWP — position and weather

sailwx.info

Track history (hours):
 
Tides and Currents Weather Stations Pressure Air Temp Water Temp Dewpoint Dewpoint Depression Visibility Wind Speed Wind Dir Waves Ship Positions

August Explorer

Last reported at 2018-May-16 05:50 UTC. Time now 2018-Jun-25 05:47 UTC.
Position N 34°26' E 134°09'.
Warning: this ship's position is 39 days out of date.

Length 90 m; draft 3.3 m.

Type: Other ship. MMSI: 431370000.

Date/timePositionNaut miles runAvg speedWind from/ knotsBaromVisibWave heightAir tempDewpointWater temp
2018-May-16 05:50N 34°26' E 134°09'3 7.8
2018-May-16 05:27N 34°25' E 134°12'6 7.4
2018-May-16 04:42N 34°24' E 134°18'2 7.3
2018-May-16 04:29N 34°25' E 134°20'4 7.5
2018-May-16 04:00N 34°26' E 134°25'4 7.7
2018-May-16 03:30N 34°27' E 134°29'4 7.5
2018-May-16 03:00N 34°29' E 134°33'4 8.4
2018-May-16 02:30N 34°30' E 134°38'510.5
2018-May-16 02:00N 34°32' E 134°44'611.0
2018-May-16 01:30N 34°34' E 134°50'1011.3
2018-May-16 00:37N 34°37' E 135°02'112.1
2018-May-16 00:30N 34°36' E 135°03'510.5
2018-May-16 00:00N 34°36' E 135°09'510.6
2018-May-15 23:30N 34°37' E 135°16'510.0
2018-May-15 23:00N 34°41' E 135°19'2 3.9
2018-May-15 22:30N 34°42' E 135°21'0 0.0
2018-May-15 21:52N 34°42' E 135°21'0 0.0
2018-May-15 21:22N 34°42' E 135°21'0 0.0
2018-May-15 20:46N 34°42' E 135°21'0 0.0
2018-May-15 20:28N 34°42' E 135°21'0 0.0
2018-May-15 19:58N 34°42' E 135°21'0 0.0
2018-May-15 19:28N 34°42' E 135°21'0 0.0
2018-May-15 18:58N 34°42' E 135°21'0 0.0
2018-May-15 18:28N 34°42' E 135°21'0 0.0
2018-May-15 17:58N 34°42' E 135°21'0 0.0
2018-May-15 17:22N 34°42' E 135°21'0 0.0
2018-May-15 16:52N 34°42' E 135°21'0 0.0
2018-May-15 16:28N 34°42' E 135°21'0 0.0
2018-May-15 15:58N 34°42' E 135°21'0 0.0
2018-May-15 15:28N 34°42' E 135°21'0 0.0
2018-May-15 14:58N 34°42' E 135°21'0 0.0
2018-May-15 14:28N 34°42' E 135°21'0 0.0
2018-May-15 13:58N 34°42' E 135°21'0 0.0
2018-May-15 13:28N 34°42' E 135°21'0 0.0
2018-May-15 12:58N 34°42' E 135°21'0 0.0
2018-May-15 12:28N 34°42' E 135°21'0 0.0
2018-May-15 11:58N 34°42' E 135°21'0 0.0
2018-May-15 11:28N 34°42' E 135°21'0 0.0
2018-May-15 10:58N 34°42' E 135°21'0 0.0
2018-May-15 10:28N 34°42' E 135°21'0 0.0
2018-May-15 09:58N 34°42' E 135°21'0 0.0
2018-May-15 09:28N 34°42' E 135°21'0 0.0
2018-May-15 08:58N 34°42' E 135°21'0 0.0
2018-May-15 08:28N 34°42' E 135°21'0 0.0
2018-May-15 07:58N 34°42' E 135°21'0 0.0
2018-May-15 07:28N 34°42' E 135°21'0 0.0
2018-May-15 06:55N 34°42' E 135°21'0 0.0
2018-May-15 06:28N 34°42' E 135°21'0 0.0
2018-May-15 05:58N 34°42' E 135°21'0 0.0
2018-May-15 05:28N 34°42' E 135°21'0 0.0
2018-May-15 04:55N 34°42' E 135°21'0 0.0
2018-May-15 04:28N 34°42' E 135°21'0 0.0
2018-May-15 03:58N 34°42' E 135°21'0 0.0
2018-May-15 03:28N 34°42' E 135°21'0 0.0
2018-May-15 02:58N 34°42' E 135°21'0 0.0
2018-May-15 02:28N 34°42' E 135°21'0 0.0
2018-May-15 01:58N 34°42' E 135°21'0 0.0
2018-May-15 01:28N 34°42' E 135°21'0 0.0
2018-May-15 00:58N 34°42' E 135°21'0 0.0
2018-May-15 00:28N 34°42' E 135°21'0 0.0
2018-May-14 23:58N 34°42' E 135°21'0 0.0
2018-May-14 23:28N 34°42' E 135°21'0 0.0
2018-May-14 22:58N 34°42' E 135°21'0 0.0
2018-May-14 22:28N 34°42' E 135°21'0 0.0
2018-May-14 21:58N 34°42' E 135°21'0 0.0
2018-May-14 21:28N 34°42' E 135°21'0 0.0
2018-May-14 20:58N 34°42' E 135°21'0 0.0
2018-May-14 20:28N 34°42' E 135°21'0 0.0
2018-May-14 19:58N 34°42' E 135°21'0 0.0
2018-May-14 19:28N 34°42' E 135°21'0 0.0
2018-May-14 18:58N 34°42' E 135°21'0 0.0
2018-May-14 18:28N 34°42' E 135°21'0 0.0
2018-May-14 17:58N 34°42' E 135°21'0 0.0
2018-May-14 17:28N 34°42' E 135°21'0 0.0
2018-May-14 16:58N 34°42' E 135°21'0 0.0
2018-May-14 16:28N 34°42' E 135°21'0 0.0
2018-May-14 15:58N 34°42' E 135°21'0 0.0
2018-May-14 15:28N 34°42' E 135°21'0 0.0
2018-May-14 14:58N 34°42' E 135°21'0 0.0
2018-May-14 14:28N 34°42' E 135°21'0 0.0
2018-May-14 13:58N 34°42' E 135°21'0 0.0
2018-May-14 13:28N 34°42' E 135°21'0 0.0
2018-May-14 12:58N 34°42' E 135°21'0 0.0
2018-May-14 12:28N 34°42' E 135°21'0 0.0
2018-May-14 11:55N 34°42' E 135°21'0 0.0
2018-May-14 11:28N 34°42' E 135°21'0 0.0
2018-May-14 10:58N 34°42' E 135°21'0 0.0
2018-May-14 10:25N 34°42' E 135°21'0 0.0
2018-May-14 09:58N 34°42' E 135°21'0 0.0
2018-May-14 09:28N 34°42' E 135°21'0 0.0
2018-May-14 08:58N 34°42' E 135°21'0 0.0
2018-May-14 08:28N 34°42' E 135°21'0 0.0
2018-May-14 07:55N 34°42' E 135°21'0 0.0
2018-May-14 07:28N 34°42' E 135°21'0 0.0
2018-May-14 06:58N 34°42' E 135°21'0 0.0
2018-May-14 06:28N 34°42' E 135°21'0 0.0
2018-May-14 05:58N 34°42' E 135°21'0 0.0
2018-May-14 05:28N 34°42' E 135°21'0 0.0
2018-May-14 04:58N 34°42' E 135°21'0 0.0
2018-May-14 04:28N 34°42' E 135°21'0 0.0
2018-May-14 03:58N 34°42' E 135°21'0 0.0
2018-May-14 03:28N 34°42' E 135°21'0 0.0
2018-May-14 02:58N 34°42' E 135°21'0 0.0
2018-May-14 02:28N 34°42' E 135°21'0 0.0
2018-May-14 01:58N 34°42' E 135°21'0 0.0
2018-May-14 01:28N 34°42' E 135°21'0 0.0
2018-May-14 00:55N 34°42' E 135°21'0 0.0
2018-May-14 00:28N 34°42' E 135°21'0 0.0
2018-May-13 23:58N 34°42' E 135°21'0 0.0
2018-May-13 23:28N 34°42' E 135°21'0 0.0
2018-May-13 22:58N 34°42' E 135°21'0 0.0
2018-May-13 22:25N 34°42' E 135°21'0 0.0
2018-May-13 21:55N 34°42' E 135°21'0 0.0
2018-May-13 21:28N 34°42' E 135°21'0 0.0
2018-May-13 20:58N 34°42' E 135°21'0 0.0
2018-May-13 20:28N 34°42' E 135°21'0 0.0
2018-May-13 19:58N 34°42' E 135°21'0 0.0
2018-May-13 19:28N 34°42' E 135°21'0 0.0
2018-May-13 18:58N 34°42' E 135°21'0 0.0
2018-May-13 18:28N 34°42' E 135°21'0 0.0
2018-May-13 17:58N 34°42' E 135°21'0 0.0
2018-May-13 17:28N 34°42' E 135°21'0 0.0
2018-May-13 16:58N 34°42' E 135°21'0 0.0
2018-May-13 16:28N 34°42' E 135°21'0 0.0
2018-May-13 15:58N 34°42' E 135°21'0 0.0
2018-May-13 15:28N 34°42' E 135°21'0 0.0
2018-May-13 14:58N 34°42' E 135°21'0 0.0
2018-May-13 14:25N 34°42' E 135°21'0 0.0
2018-May-13 13:58N 34°42' E 135°21'0 0.0
2018-May-13 13:28N 34°42' E 135°21'0 0.0
2018-May-13 12:58N 34°42' E 135°21'0 0.0
2018-May-13 12:25N 34°42' E 135°21'0 0.0
2018-May-13 11:58N 34°42' E 135°21'0 0.0
2018-May-13 11:28N 34°42' E 135°21'0 0.0
2018-May-13 10:58N 34°42' E 135°21'0 0.0
2018-May-13 10:28N 34°42' E 135°21'0 0.0
2018-May-13 09:58N 34°42' E 135°21'0 0.0
2018-May-13 09:28N 34°42' E 135°21'0 0.0
2018-May-13 08:58N 34°42' E 135°21'0 0.0
2018-May-13 08:28N 34°42' E 135°21'0 0.0
2018-May-13 07:58N 34°42' E 135°21'0 0.0
2018-May-13 07:25N 34°42' E 135°21'0 0.0
2018-May-13 06:58N 34°42' E 135°21'0 0.0
2018-May-13 06:28N 34°42' E 135°21'0 0.0
2018-May-13 05:58N 34°42' E 135°21'0 0.0
2018-May-13 05:25N 34°42' E 135°21'0 0.0
2018-May-13 04:58N 34°42' E 135°21'0 0.0
2018-May-13 04:28N 34°42' E 135°21'0 0.0
2018-May-13 03:55N 34°42' E 135°21'0 0.0
2018-May-13 03:28N 34°42' E 135°21'0 0.0
2018-May-13 02:58N 34°42' E 135°21'0 0.0
2018-May-13 02:28N 34°42' E 135°21'0 0.0
2018-May-13 01:58N 34°42' E 135°21'0 0.0
2018-May-13 01:28N 34°42' E 135°21'0 0.0
2018-May-13 00:58N 34°42' E 135°21'0 0.0
2018-May-13 00:28N 34°42' E 135°21'0 0.0
2018-May-12 23:58N 34°42' E 135°21'0 0.0
2018-May-12 23:28N 34°42' E 135°21'0 0.0
2018-May-12 22:58N 34°42' E 135°21'0 0.0
2018-May-12 22:28N 34°42' E 135°21'0 0.0
2018-May-12 21:58N 34°42' E 135°21'0 0.0
2018-May-12 21:28N 34°42' E 135°21'0 0.0
2018-May-12 20:58N 34°42' E 135°21'0 0.0
2018-May-12 20:25N 34°42' E 135°21'0 0.0
2018-May-12 19:58N 34°42' E 135°21'0 0.0
2018-May-12 19:25N 34°42' E 135°21'0 0.0
2018-May-12 18:58N 34°42' E 135°21'0 0.0
2018-May-12 18:28N 34°42' E 135°21'0 0.0
2018-May-12 17:58N 34°42' E 135°21'0 0.0
2018-May-12 17:28N 34°42' E 135°21'0 0.0
2018-May-12 16:58N 34°42' E 135°21'0 0.0
2018-May-12 16:28N 34°42' E 135°21'0 0.0
2018-May-12 15:58N 34°42' E 135°21'0 0.0
2018-May-12 15:28N 34°42' E 135°21'0 0.0
2018-May-12 14:58N 34°42' E 135°21'0 0.0
2018-May-12 14:28N 34°42' E 135°21'0 0.0
2018-May-12 13:58N 34°42' E 135°21'0 0.0
2018-May-12 13:25N 34°42' E 135°21'0 0.0
2018-May-12 12:58N 34°42' E 135°21'0 0.0
2018-May-12 12:28N 34°42' E 135°21'0 0.0
2018-May-12 11:58N 34°42' E 135°21'0 0.0
2018-May-12 11:28N 34°42' E 135°21'0 0.0
2018-May-12 10:58N 34°42' E 135°21'0 0.0
2018-May-12 10:28N 34°42' E 135°21'0 0.0
2018-May-12 09:58N 34°42' E 135°21'0 0.0
2018-May-12 09:28N 34°42' E 135°21'0 0.0
2018-May-12 08:58N 34°42' E 135°21'0 0.0
2018-May-12 08:28N 34°42' E 135°21'0 0.0
2018-May-12 07:58N 34°42' E 135°21'0 0.0
2018-May-12 07:25N 34°42' E 135°21'0 0.0
2018-May-12 06:58N 34°42' E 135°21'0 0.0
2018-May-12 06:28N 34°42' E 135°21'0 0.0
2018-May-12 05:58N 34°42' E 135°21'0 0.0
2018-May-12 05:28N 34°42' E 135°21'0 0.0
2018-May-12 04:58N 34°42' E 135°21'0 0.0
2018-May-12 04:28N 34°42' E 135°21'0 0.0
2018-May-12 03:58N 34°42' E 135°21'0 0.0
2018-May-12 03:25N 34°42' E 135°21'0 0.0
2018-May-12 02:58N 34°42' E 135°21'0 0.0
2018-May-12 02:28N 34°42' E 135°21'0 0.0
2018-May-12 01:58N 34°42' E 135°21'0 0.0
2018-May-12 01:28N 34°42' E 135°21'0 0.0
2018-May-12 00:58N 34°42' E 135°21'0 0.0
2018-May-12 00:28N 34°42' E 135°21'0 0.0
2018-May-11 23:58N 34°42' E 135°21'0 0.0
2018-May-11 23:28N 34°42' E 135°21'0 0.0
2018-May-11 22:58N 34°42' E 135°21'0 0.0
2018-May-11 22:28N 34°42' E 135°21'0 0.0
2018-May-11 21:58N 34°42' E 135°21'0 0.0
2018-May-11 21:25N 34°42' E 135°21'0 0.0
2018-May-11 20:55N 34°42' E 135°21'0 0.0
2018-May-11 20:28N 34°42' E 135°21'0 0.0
2018-May-11 19:58N 34°42' E 135°21'0 0.0
2018-May-11 19:28N 34°42' E 135°21'0 0.0
2018-May-11 18:58N 34°42' E 135°21'0 0.0
2018-May-11 18:28N 34°42' E 135°21'0 0.0
2018-May-11 17:58N 34°42' E 135°21'0 0.0
2018-May-11 17:28N 34°42' E 135°21'0 0.0
2018-May-11 16:58N 34°42' E 135°21'0 0.0
2018-May-11 16:28N 34°42' E 135°21'0 0.0
2018-May-11 15:58N 34°42' E 135°21'0 0.0
2018-May-11 15:28N 34°42' E 135°21'0 0.0
2018-May-11 14:58N 34°42' E 135°21'0 0.0
2018-May-11 14:28N 34°42' E 135°21'0 0.0
2018-May-11 13:58N 34°42' E 135°21'0 0.0
2018-May-11 13:28N 34°42' E 135°21'0 0.0
2018-May-11 12:58N 34°42' E 135°21'0 0.0
2018-May-11 12:28N 34°42' E 135°21'0 0.0
2018-May-11 11:58N 34°42' E 135°21'0 0.0
2018-May-11 11:28N 34°42' E 135°21'0 0.0
2018-May-11 10:58N 34°42' E 135°21'0 0.0
2018-May-11 10:28N 34°42' E 135°21'0 0.0
2018-May-11 09:58N 34°42' E 135°21'0 0.0
2018-May-11 09:28N 34°42' E 135°21'0 0.0
2018-May-11 08:58N 34°42' E 135°21'0 0.0
2018-May-11 08:28N 34°42' E 135°21'0 0.0
2018-May-11 07:58N 34°42' E 135°21'0 0.0
2018-May-11 07:28N 34°42' E 135°21'0 0.0
2018-May-11 06:58N 34°42' E 135°21'0 0.0
2018-May-11 06:28N 34°42' E 135°21'0 0.0
2018-May-11 05:55N 34°42' E 135°21'0 0.0
2018-May-11 05:28N 34°42' E 135°21'0 0.0
2018-May-11 04:58N 34°42' E 135°21'0 0.0
2018-May-11 04:28N 34°42' E 135°21'0 0.0
2018-May-11 03:58N 34°42' E 135°21'0 0.0
2018-May-11 03:28N 34°42' E 135°21'0 0.0
2018-May-11 02:58N 34°42' E 135°21'0 0.0
2018-May-11 02:28N 34°42' E 135°21'0 0.0
2018-May-11 01:58N 34°42' E 135°21'0 0.0
2018-May-11 01:28N 34°42' E 135°21'0 0.0
2018-May-11 00:58N 34°42' E 135°21'0 0.0
2018-May-11 00:25N 34°42' E 135°21'0 0.0
2018-May-10 23:58N 34°42' E 135°21'0 0.0
2018-May-10 23:28N 34°42' E 135°21'0 0.0
2018-May-10 22:58N 34°42' E 135°21'0 0.0
2018-May-10 22:28N 34°42' E 135°21'0 0.0
2018-May-10 21:58N 34°42' E 135°21'0 0.0
2018-May-10 21:28N 34°42' E 135°21'0 0.0
2018-May-10 20:58N 34°42' E 135°21'0 0.0
2018-May-10 20:28N 34°42' E 135°21'0 0.0
2018-May-10 19:58N 34°42' E 135°21'0 0.0
2018-May-10 19:28N 34°42' E 135°21'0 0.0
2018-May-10 18:58N 34°42' E 135°21'0 0.0
2018-May-10 18:25N 34°42' E 135°21'0 0.0
2018-May-10 17:58N 34°42' E 135°21'0 0.0
2018-May-10 17:28N 34°42' E 135°21'0 0.0
2018-May-10 16:58N 34°42' E 135°21'0 0.0
2018-May-10 16:28N 34°42' E 135°21'0 0.0
2018-May-10 15:58N 34°42' E 135°21'0 0.0
2018-May-10 15:28N 34°42' E 135°21'0 0.0
2018-May-10 14:58N 34°42' E 135°21'0 0.0
2018-May-10 14:28N 34°42' E 135°21'0 0.0
2018-May-10 13:58N 34°42' E 135°21'0 0.0
2018-May-10 13:28N 34°42' E 135°21'0 0.0
2018-May-10 12:58N 34°42' E 135°21'0 0.0
2018-May-10 12:25N 34°42' E 135°21'0 0.0
2018-May-10 11:58N 34°42' E 135°21'0 0.0
2018-May-10 11:28N 34°42' E 135°21'0 0.0
2018-May-10 10:58N 34°42' E 135°21'0 0.0
2018-May-10 10:28N 34°42' E 135°21'0 0.0
2018-May-10 09:58N 34°42' E 135°21'0 0.0
2018-May-10 09:28N 34°42' E 135°21'0 0.0
2018-May-10 08:58N 34°42' E 135°21'0 0.0
2018-May-10 08:28N 34°42' E 135°21'0 0.0
2018-May-10 07:58N 34°42' E 135°21'0 0.0
2018-May-10 07:28N 34°42' E 135°21'0 0.0
2018-May-10 06:58N 34°42' E 135°21'0 0.0
2018-May-10 06:28N 34°42' E 135°21'0 0.0
2018-May-10 05:58N 34°42' E 135°21'0 0.0
2018-May-10 05:28N 34°42' E 135°21'0 0.0
2018-May-10 04:58N 34°42' E 135°21'0 0.0
2018-May-10 04:28N 34°42' E 135°21'0 0.0
2018-May-10 03:58N 34°42' E 135°21'0 0.0
2018-May-10 03:28N 34°42' E 135°21'0 0.0
2018-May-10 02:58N 34°42' E 135°21'0 0.0
2018-May-10 02:28N 34°42' E 135°21'0 0.0
2018-May-10 01:58N 34°42' E 135°21'0 0.0
2018-May-10 01:28N 34°42' E 135°21'0 0.0
2018-May-10 00:58N 34°42' E 135°21'0 0.0
2018-May-10 00:28N 34°42' E 135°21'0 0.0
2018-May-09 23:58N 34°42' E 135°21'0 0.0
2018-May-09 23:28N 34°42' E 135°21'0 0.0
2018-May-09 22:58N 34°42' E 135°21'0 0.0
2018-May-09 22:28N 34°42' E 135°21'0 0.0
2018-May-09 21:58N 34°42' E 135°21'0 0.0
2018-May-09 21:28N 34°42' E 135°21'0 0.0
2018-May-09 20:58N 34°42' E 135°21'0 0.0
2018-May-09 20:28N 34°42' E 135°21'0 0.0
2018-May-09 19:58N 34°42' E 135°21'0 0.0
2018-May-09 19:28N 34°42' E 135°21'0 0.0
2018-May-09 18:58N 34°42' E 135°21'0 0.0
2018-May-09 18:28N 34°42' E 135°21'0 0.0
2018-May-09 17:58N 34°42' E 135°21'0 0.0
2018-May-09 17:28N 34°42' E 135°21'0 0.0
2018-May-09 16:58N 34°42' E 135°21'0 0.0
2018-May-09 16:28N 34°42' E 135°21'0 0.0
2018-May-09 15:58N 34°42' E 135°21'0 0.0
2018-May-09 15:28N 34°42' E 135°21'0 0.0
2018-May-09 14:58N 34°42' E 135°21'0 0.0
2018-May-09 14:28N 34°42' E 135°21'0 0.0
2018-May-09 13:58N 34°42' E 135°21'0 0.0
2018-May-09 13:28N 34°42' E 135°21'0 0.0
2018-May-09 12:58N 34°42' E 135°21'0 0.0
2018-May-09 12:28N 34°42' E 135°21'0 0.0
2018-May-09 11:58N 34°42' E 135°21'0 0.0
2018-May-09 11:28N 34°42' E 135°21'0 0.0
2018-May-09 10:58N 34°42' E 135°21'0 0.0
2018-May-09 10:28N 34°42' E 135°21'0 0.0
2018-May-09 09:58N 34°42' E 135°21'0 0.0
2018-May-09 09:28N 34°42' E 135°21'0 0.0
2018-May-09 08:58N 34°42' E 135°21'0 0.0
2018-May-09 08:25N 34°42' E 135°21'0 0.0
2018-May-09 07:58N 34°42' E 135°21'0 0.0
2018-May-09 07:25N 34°42' E 135°21'0 0.0
2018-May-09 06:58N 34°42' E 135°21'0 0.0
2018-May-09 06:28N 34°42' E 135°21'0 0.0
2018-May-09 05:55N 34°42' E 135°21'0 0.0
2018-May-09 05:28N 34°42' E 135°21'0 0.0
2018-May-09 04:58N 34°42' E 135°21'0 0.0
2018-May-09 04:28N 34°42' E 135°21'0 0.0
2018-May-09 03:58N 34°42' E 135°21'0 0.0
2018-May-09 03:25N 34°42' E 135°21'0 0.0
2018-May-09 02:58N 34°42' E 135°21'0 0.0
2018-May-09 02:28N 34°42' E 135°21'0 0.0
2018-May-09 01:58N 34°42' E 135°21'0 0.0
2018-May-09 01:28N 34°42' E 135°21'0 0.0
2018-May-09 00:58N 34°42' E 135°21'0 0.0
2018-May-09 00:28N 34°42' E 135°21'0 0.0
2018-May-08 23:58N 34°42' E 135°21'0 0.0
2018-May-08 23:28N 34°42' E 135°21'0 0.0
2018-May-08 22:58N 34°42' E 135°21'0 0.0
2018-May-08 22:28N 34°42' E 135°21'0 0.0
2018-May-08 21:58N 34°42' E 135°21'0 0.0
2018-May-08 21:28N 34°42' E 135°21'0 0.0
2018-May-08 20:58N 34°42' E 135°21'0 0.0
2018-May-08 20:28N 34°42' E 135°21'0 0.0
2018-May-08 19:58N 34°42' E 135°21'0 0.0
2018-May-08 19:28N 34°42' E 135°21'0 0.0
2018-May-08 18:58N 34°42' E 135°21'0 0.0
2018-May-08 18:28N 34°42' E 135°21'0 0.0
2018-May-08 17:58N 34°42' E 135°21'0 0.0
2018-May-08 17:28N 34°42' E 135°21'0 0.0
2018-May-08 16:58N 34°42' E 135°21'0 0.0
2018-May-08 16:28N 34°42' E 135°21'0 0.0
2018-May-08 15:55N 34°42' E 135°21'0 0.0
2018-May-08 15:28N 34°42' E 135°21'0 0.0
2018-May-08 14:58N 34°42' E 135°21'0 0.0
2018-May-08 14:28N 34°42' E 135°21'0 0.0
2018-May-08 13:58N 34°42' E 135°21'0 0.0
2018-May-08 13:28N 34°42' E 135°21'0 0.0
2018-May-08 12:58N 34°42' E 135°21'0 0.0
2018-May-08 12:28N 34°42' E 135°21'0 0.0
2018-May-08 11:58N 34°42' E 135°21'0 0.0
2018-May-08 11:28N 34°42' E 135°21'0 0.0
2018-May-08 10:58N 34°42' E 135°21'0 0.0
2018-May-08 10:28N 34°42' E 135°21'0 0.0
2018-May-08 09:57N 34°42' E 135°21'0 0.0
2018-May-08 09:28N 34°42' E 135°21'0 0.0
2018-May-08 08:57N 34°42' E 135°21'0 0.0
2018-May-08 08:28N 34°42' E 135°21'0 0.0
2018-May-08 07:58N 34°42' E 135°21'0 0.0
2018-May-08 07:28N 34°42' E 135°21'0 0.0
2018-May-08 06:58N 34°42' E 135°21'0 0.0
2018-May-08 06:28N 34°42' E 135°21'0 0.0
2018-May-08 05:58N 34°42' E 135°21'0 0.0
2018-May-08 05:28N 34°42' E 135°21'0 0.0
2018-May-08 04:58N 34°42' E 135°21'0 0.0
2018-May-08 04:25N 34°42' E 135°21'0 0.0
2018-May-08 03:58N 34°42' E 135°21'0 0.0
2018-May-08 03:28N 34°42' E 135°21'0 0.0
2018-May-08 02:58N 34°42' E 135°21'0 0.0
2018-May-08 02:25N 34°42' E 135°21'0 0.0
2018-May-08 02:00N 34°42' E 135°21'0 0.0
2018-May-08 01:27N 34°42' E 135°21'0 0.0
2018-May-08 01:00N 34°42' E 135°21'0 0.0
2018-May-08 00:25N 34°42' E 135°21'0 0.0
2018-May-08 00:01N 34°42' E 135°21'0 0.0
2018-May-07 23:27N 34°42' E 135°21'0 0.0
2018-May-07 22:58N 34°42' E 135°21'0 0.0
2018-May-07 22:28N 34°42' E 135°21'0 0.0
2018-May-07 21:57N 34°42' E 135°21'0 0.0
2018-May-07 21:31N 34°42' E 135°21'0 0.0
2018-May-07 20:58N 34°42' E 135°21'0 0.0
2018-May-07 20:28N 34°42' E 135°21'0 0.0
2018-May-07 19:58N 34°42' E 135°21'0 0.0
2018-May-07 19:27N 34°42' E 135°21'0 0.0
2018-May-07 18:58N 34°42' E 135°21'0 0.0
2018-May-07 18:28N 34°42' E 135°21'0 0.0
2018-May-07 18:01N 34°42' E 135°21'0 0.0
2018-May-07 17:30N 34°42' E 135°21'0 0.0
2018-May-07 16:57N 34°42' E 135°21'0 0.0
2018-May-07 16:30N 34°42' E 135°21'0 0.0
2018-May-07 15:58N 34°42' E 135°21'0 0.0
2018-May-07 15:27N 34°42' E 135°21'0 0.0
2018-May-07 15:00N 34°42' E 135°21'0 0.0
2018-May-07 14:30N 34°42' E 135°21'0 0.0
2018-May-07 14:01N 34°42' E 135°21'0 0.0
2018-May-07 13:31N 34°42' E 135°21'0 0.0
2018-May-07 13:01N 34°42' E 135°21'0 0.0
2018-May-07 12:30N 34°42' E 135°21'0 0.0
2018-May-07 11:57N 34°42' E 135°21'0 0.0
2018-May-07 11:30N 34°42' E 135°21'0 0.0
2018-May-07 11:00N 34°42' E 135°21'0 0.0
2018-May-07 10:30N 34°42' E 135°21'0 0.0
2018-May-07 10:00N 34°42' E 135°21'0 0.0
2018-May-07 09:30N 34°42' E 135°21'0 0.0
2018-May-07 09:01N 34°42' E 135°21'0 0.0
2018-May-07 08:27N 34°42' E 135°21'0 0.0
2018-May-07 08:01N 34°42' E 135°21'0 0.7
2018-May-07 07:30N 34°42' E 135°21'4 8.7
2018-May-07 07:00N 34°38' E 135°18'5 9.3
2018-May-07 06:30N 34°35' E 135°13'510.5
2018-May-07 06:00N 34°35' E 135°07'5 9.7
2018-May-07 05:30N 34°37' E 135°02'4 8.1
2018-May-07 05:00N 34°36' E 134°57'5 9.2
2018-May-07 04:30N 34°38' E 134°51'5 9.8
2018-May-07 04:00N 34°39' E 134°45'5 9.9
2018-May-07 03:30N 34°40' E 134°40'510.0
2018-May-07 03:00N 34°42' E 134°34'5 9.7
2018-May-07 02:29N 34°44' E 134°28'  
Track history (hours):
 
Tides and Currents Weather Stations Pressure Air Temp Water Temp Dewpoint Dewpoint Depression Visibility Wind Speed Wind Dir Waves Ship Positions

August Explorer

Last reported at 2018-May-16 05:50 UTC. Time now 2018-Jun-25 05:47 UTC.
Position N 34°26' E 134°09'.
Warning: this ship's position is 39 days out of date.

Length 90 m; draft 3.3 m.

Type: Other ship. MMSI: 431370000.

Date/timePositionNaut miles runAvg speedWind from/ knotsBaromVisibWave heightAir tempDewpointWater temp
2018-May-16 05:50N 34°26' E 134°09'3 7.8
2018-May-16 05:27N 34°25' E 134°12'6 7.4
2018-May-16 04:42N 34°24' E 134°18'2 7.3
2018-May-16 04:29N 34°25' E 134°20'4 7.5
2018-May-16 04:00N 34°26' E 134°25'4 7.7
2018-May-16 03:30N 34°27' E 134°29'4 7.5
2018-May-16 03:00N 34°29' E 134°33'4 8.4
2018-May-16 02:30N 34°30' E 134°38'510.5
2018-May-16 02:00N 34°32' E 134°44'611.0
2018-May-16 01:30N 34°34' E 134°50'1011.3
2018-May-16 00:37N 34°37' E 135°02'112.1
2018-May-16 00:30N 34°36' E 135°03'510.5
2018-May-16 00:00N 34°36' E 135°09'510.6
2018-May-15 23:30N 34°37' E 135°16'510.0
2018-May-15 23:00N 34°41' E 135°19'2 3.9
2018-May-15 22:30N 34°42' E 135°21'0 0.0
2018-May-15 21:52N 34°42' E 135°21'0 0.0
2018-May-15 21:22N 34°42' E 135°21'0 0.0
2018-May-15 20:46N 34°42' E 135°21'0 0.0
2018-May-15 20:28N 34°42' E 135°21'0 0.0
2018-May-15 19:58N 34°42' E 135°21'0 0.0
2018-May-15 19:28N 34°42' E 135°21'0 0.0
2018-May-15 18:58N 34°42' E 135°21'0 0.0
2018-May-15 18:28N 34°42' E 135°21'0 0.0
2018-May-15 17:58N 34°42' E 135°21'0 0.0
2018-May-15 17:22N 34°42' E 135°21'0 0.0
2018-May-15 16:52N 34°42' E 135°21'0 0.0
2018-May-15 16:28N 34°42' E 135°21'0 0.0
2018-May-15 15:58N 34°42' E 135°21'0 0.0
2018-May-15 15:28N 34°42' E 135°21'0 0.0
2018-May-15 14:58N 34°42' E 135°21'0 0.0
2018-May-15 14:28N 34°42' E 135°21'0 0.0
2018-May-15 13:58N 34°42' E 135°21'0 0.0
2018-May-15 13:28N 34°42' E 135°21'0 0.0
2018-May-15 12:58N 34°42' E 135°21'0 0.0
2018-May-15 12:28N 34°42' E 135°21'0 0.0
2018-May-15 11:58N 34°42' E 135°21'0 0.0
2018-May-15 11:28N 34°42' E 135°21'0 0.0
2018-May-15 10:58N 34°42' E 135°21'0 0.0
2018-May-15 10:28N 34°42' E 135°21'0 0.0
2018-May-15 09:58N 34°42' E 135°21'0 0.0
2018-May-15 09:28N 34°42' E 135°21'0 0.0
2018-May-15 08:58N 34°42' E 135°21'0 0.0
2018-May-15 08:28N 34°42' E 135°21'0 0.0
2018-May-15 07:58N 34°42' E 135°21'0 0.0
2018-May-15 07:28N 34°42' E 135°21'0 0.0
2018-May-15 06:55N 34°42' E 135°21'0 0.0
2018-May-15 06:28N 34°42' E 135°21'0 0.0
2018-May-15 05:58N 34°42' E 135°21'0 0.0
2018-May-15 05:28N 34°42' E 135°21'0 0.0
2018-May-15 04:55N 34°42' E 135°21'0 0.0
2018-May-15 04:28N 34°42' E 135°21'0 0.0
2018-May-15 03:58N 34°42' E 135°21'0 0.0
2018-May-15 03:28N 34°42' E 135°21'0 0.0
2018-May-15 02:58N 34°42' E 135°21'0 0.0
2018-May-15 02:28N 34°42' E 135°21'0 0.0
2018-May-15 01:58N 34°42' E 135°21'0 0.0
2018-May-15 01:28N 34°42' E 135°21'0 0.0
2018-May-15 00:58N 34°42' E 135°21'0 0.0
2018-May-15 00:28N 34°42' E 135°21'0 0.0
2018-May-14 23:58N 34°42' E 135°21'0 0.0
2018-May-14 23:28N 34°42' E 135°21'0 0.0
2018-May-14 22:58N 34°42' E 135°21'0 0.0
2018-May-14 22:28N 34°42' E 135°21'0 0.0
2018-May-14 21:58N 34°42' E 135°21'0 0.0
2018-May-14 21:28N 34°42' E 135°21'0 0.0
2018-May-14 20:58N 34°42' E 135°21'0 0.0
2018-May-14 20:28N 34°42' E 135°21'0 0.0
2018-May-14 19:58N 34°42' E 135°21'0 0.0
2018-May-14 19:28N 34°42' E 135°21'0 0.0
2018-May-14 18:58N 34°42' E 135°21'0 0.0
2018-May-14 18:28N 34°42' E 135°21'0 0.0
2018-May-14 17:58N 34°42' E 135°21'0 0.0
2018-May-14 17:28N 34°42' E 135°21'0 0.0
2018-May-14 16:58N 34°42' E 135°21'0 0.0
2018-May-14 16:28N 34°42' E 135°21'0 0.0
2018-May-14 15:58N 34°42' E 135°21'0 0.0
2018-May-14 15:28N 34°42' E 135°21'0 0.0
2018-May-14 14:58N 34°42' E 135°21'0 0.0
2018-May-14 14:28N 34°42' E 135°21'0 0.0
2018-May-14 13:58N 34°42' E 135°21'0 0.0
2018-May-14 13:28N 34°42' E 135°21'0 0.0
2018-May-14 12:58N 34°42' E 135°21'0 0.0
2018-May-14 12:28N 34°42' E 135°21'0 0.0
2018-May-14 11:55N 34°42' E 135°21'0 0.0
2018-May-14 11:28N 34°42' E 135°21'0 0.0
2018-May-14 10:58N 34°42' E 135°21'0 0.0
2018-May-14 10:25N 34°42' E 135°21'0 0.0
2018-May-14 09:58N 34°42' E 135°21'0 0.0
2018-May-14 09:28N 34°42' E 135°21'0 0.0
2018-May-14 08:58N 34°42' E 135°21'0 0.0
2018-May-14 08:28N 34°42' E 135°21'0 0.0
2018-May-14 07:55N 34°42' E 135°21'0 0.0
2018-May-14 07:28N 34°42' E 135°21'0 0.0
2018-May-14 06:58N 34°42' E 135°21'0 0.0
2018-May-14 06:28N 34°42' E 135°21'0 0.0
2018-May-14 05:58N 34°42' E 135°21'0 0.0
2018-May-14 05:28N 34°42' E 135°21'0 0.0
2018-May-14 04:58N 34°42' E 135°21'0 0.0
2018-May-14 04:28N 34°42' E 135°21'0 0.0
2018-May-14 03:58N 34°42' E 135°21'0 0.0
2018-May-14 03:28N 34°42' E 135°21'0 0.0
2018-May-14 02:58N 34°42' E 135°21'0 0.0
2018-May-14 02:28N 34°42' E 135°21'0 0.0
2018-May-14 01:58N 34°42' E 135°21'0 0.0
2018-May-14 01:28N 34°42' E 135°21'0 0.0
2018-May-14 00:55N 34°42' E 135°21'0 0.0
2018-May-14 00:28N 34°42' E 135°21'0 0.0
2018-May-13 23:58N 34°42' E 135°21'0 0.0
2018-May-13 23:28N 34°42' E 135°21'0 0.0
2018-May-13 22:58N 34°42' E 135°21'0 0.0
2018-May-13 22:25N 34°42' E 135°21'0 0.0
2018-May-13 21:55N 34°42' E 135°21'0 0.0
2018-May-13 21:28N 34°42' E 135°21'0 0.0
2018-May-13 20:58N 34°42' E 135°21'0 0.0
2018-May-13 20:28N 34°42' E 135°21'0 0.0
2018-May-13 19:58N 34°42' E 135°21'0 0.0
2018-May-13 19:28N 34°42' E 135°21'0 0.0
2018-May-13 18:58N 34°42' E 135°21'0 0.0
2018-May-13 18:28N 34°42' E 135°21'0 0.0
2018-May-13 17:58N 34°42' E 135°21'0 0.0
2018-May-13 17:28N 34°42' E 135°21'0 0.0
2018-May-13 16:58N 34°42' E 135°21'0 0.0
2018-May-13 16:28N 34°42' E 135°21'0 0.0
2018-May-13 15:58N 34°42' E 135°21'0 0.0
2018-May-13 15:28N 34°42' E 135°21'0 0.0
2018-May-13 14:58N 34°42' E 135°21'0 0.0
2018-May-13 14:25N 34°42' E 135°21'0 0.0
2018-May-13 13:58N 34°42' E 135°21'0 0.0
2018-May-13 13:28N 34°42' E 135°21'0 0.0
2018-May-13 12:58N 34°42' E 135°21'0 0.0
2018-May-13 12:25N 34°42' E 135°21'0 0.0
2018-May-13 11:58N 34°42' E 135°21'0 0.0
2018-May-13 11:28N 34°42' E 135°21'0 0.0
2018-May-13 10:58N 34°42' E 135°21'0 0.0
2018-May-13 10:28N 34°42' E 135°21'0 0.0
2018-May-13 09:58N 34°42' E 135°21'0 0.0
2018-May-13 09:28N 34°42' E 135°21'0 0.0
2018-May-13 08:58N 34°42' E 135°21'0 0.0
2018-May-13 08:28N 34°42' E 135°21'0 0.0
2018-May-13 07:58N 34°42' E 135°21'0 0.0
2018-May-13 07:25N 34°42' E 135°21'0 0.0
2018-May-13 06:58N 34°42' E 135°21'0 0.0
2018-May-13 06:28N 34°42' E 135°21'0 0.0
2018-May-13 05:58N 34°42' E 135°21'0 0.0
2018-May-13 05:25N 34°42' E 135°21'0 0.0
2018-May-13 04:58N 34°42' E 135°21'0 0.0
2018-May-13 04:28N 34°42' E 135°21'0 0.0
2018-May-13 03:55N 34°42' E 135°21'0 0.0
2018-May-13 03:28N 34°42' E 135°21'0 0.0
2018-May-13 02:58N 34°42' E 135°21'0 0.0
2018-May-13 02:28N 34°42' E 135°21'0 0.0
2018-May-13 01:58N 34°42' E 135°21'0 0.0
2018-May-13 01:28N 34°42' E 135°21'0 0.0
2018-May-13 00:58N 34°42' E 135°21'0 0.0
2018-May-13 00:28N 34°42' E 135°21'0 0.0
2018-May-12 23:58N 34°42' E 135°21'0 0.0
2018-May-12 23:28N 34°42' E 135°21'0 0.0
2018-May-12 22:58N 34°42' E 135°21'0 0.0
2018-May-12 22:28N 34°42' E 135°21'0 0.0
2018-May-12 21:58N 34°42' E 135°21'0 0.0
2018-May-12 21:28N 34°42' E 135°21'0 0.0
2018-May-12 20:58N 34°42' E 135°21'0 0.0
2018-May-12 20:25N 34°42' E 135°21'0 0.0
2018-May-12 19:58N 34°42' E 135°21'0 0.0
2018-May-12 19:25N 34°42' E 135°21'0 0.0
2018-May-12 18:58N 34°42' E 135°21'0 0.0
2018-May-12 18:28N 34°42' E 135°21'0 0.0
2018-May-12 17:58N 34°42' E 135°21'0 0.0
2018-May-12 17:28N 34°42' E 135°21'0 0.0
2018-May-12 16:58N 34°42' E 135°21'0 0.0
2018-May-12 16:28N 34°42' E 135°21'0 0.0
2018-May-12 15:58N 34°42' E 135°21'0 0.0
2018-May-12 15:28N 34°42' E 135°21'0 0.0
2018-May-12 14:58N 34°42' E 135°21'0 0.0
2018-May-12 14:28N 34°42' E 135°21'0 0.0
2018-May-12 13:58N 34°42' E 135°21'0 0.0
2018-May-12 13:25N 34°42' E 135°21'0 0.0
2018-May-12 12:58N 34°42' E 135°21'0 0.0
2018-May-12 12:28N 34°42' E 135°21'0 0.0
2018-May-12 11:58N 34°42' E 135°21'0 0.0
2018-May-12 11:28N 34°42' E 135°21'0 0.0
2018-May-12 10:58N 34°42' E 135°21'0 0.0
2018-May-12 10:28N 34°42' E 135°21'0 0.0
2018-May-12 09:58N 34°42' E 135°21'0 0.0
2018-May-12 09:28N 34°42' E 135°21'0 0.0
2018-May-12 08:58N 34°42' E 135°21'0 0.0
2018-May-12 08:28N 34°42' E 135°21'0 0.0
2018-May-12 07:58N 34°42' E 135°21'0 0.0
2018-May-12 07:25N 34°42' E 135°21'0 0.0
2018-May-12 06:58N 34°42' E 135°21'0 0.0
2018-May-12 06:28N 34°42' E 135°21'0 0.0
2018-May-12 05:58N 34°42' E 135°21'0 0.0
2018-May-12 05:28N 34°42' E 135°21'0 0.0
2018-May-12 04:58N 34°42' E 135°21'0 0.0
2018-May-12 04:28N 34°42' E 135°21'0 0.0
2018-May-12 03:58N 34°42' E 135°21'0 0.0
2018-May-12 03:25N 34°42' E 135°21'0 0.0
2018-May-12 02:58N 34°42' E 135°21'0 0.0
2018-May-12 02:28N 34°42' E 135°21'0 0.0
2018-May-12 01:58N 34°42' E 135°21'0 0.0
2018-May-12 01:28N 34°42' E 135°21'0 0.0
2018-May-12 00:58N 34°42' E 135°21'0 0.0
2018-May-12 00:28N 34°42' E 135°21'0 0.0
2018-May-11 23:58N 34°42' E 135°21'0 0.0
2018-May-11 23:28N 34°42' E 135°21'0 0.0
2018-May-11 22:58N 34°42' E 135°21'0 0.0
2018-May-11 22:28N 34°42' E 135°21'0 0.0
2018-May-11 21:58N 34°42' E 135°21'0 0.0
2018-May-11 21:25N 34°42' E 135°21'0 0.0
2018-May-11 20:55N 34°42' E 135°21'0 0.0
2018-May-11 20:28N 34°42' E 135°21'0 0.0
2018-May-11 19:58N 34°42' E 135°21'0 0.0
2018-May-11 19:28N 34°42' E 135°21'0 0.0
2018-May-11 18:58N 34°42' E 135°21'0 0.0
2018-May-11 18:28N 34°42' E 135°21'0 0.0
2018-May-11 17:58N 34°42' E 135°21'0 0.0
2018-May-11 17:28N 34°42' E 135°21'0 0.0
2018-May-11 16:58N 34°42' E 135°21'0 0.0
2018-May-11 16:28N 34°42' E 135°21'0 0.0
2018-May-11 15:58N 34°42' E 135°21'0 0.0
2018-May-11 15:28N 34°42' E 135°21'0 0.0
2018-May-11 14:58N 34°42' E 135°21'0 0.0
2018-May-11 14:28N 34°42' E 135°21'0 0.0
2018-May-11 13:58N 34°42' E 135°21'0 0.0
2018-May-11 13:28N 34°42' E 135°21'0 0.0
2018-May-11 12:58N 34°42' E 135°21'0 0.0
2018-May-11 12:28N 34°42' E 135°21'0 0.0
2018-May-11 11:58N 34°42' E 135°21'0 0.0
2018-May-11 11:28N 34°42' E 135°21'0 0.0
2018-May-11 10:58N 34°42' E 135°21'0 0.0
2018-May-11 10:28N 34°42' E 135°21'0 0.0
2018-May-11 09:58N 34°42' E 135°21'0 0.0
2018-May-11 09:28N 34°42' E 135°21'0 0.0
2018-May-11 08:58N 34°42' E 135°21'0 0.0
2018-May-11 08:28N 34°42' E 135°21'0 0.0
2018-May-11 07:58N 34°42' E 135°21'0 0.0
2018-May-11 07:28N 34°42' E 135°21'0 0.0
2018-May-11 06:58N 34°42' E 135°21'0 0.0
2018-May-11 06:28N 34°42' E 135°21'0 0.0
2018-May-11 05:55N 34°42' E 135°21'0 0.0
2018-May-11 05:28N 34°42' E 135°21'0 0.0
2018-May-11 04:58N 34°42' E 135°21'0 0.0
2018-May-11 04:28N 34°42' E 135°21'0 0.0
2018-May-11 03:58N 34°42' E 135°21'0 0.0
2018-May-11 03:28N 34°42' E 135°21'0 0.0
2018-May-11 02:58N 34°42' E 135°21'0 0.0
2018-May-11 02:28N 34°42' E 135°21'0 0.0
2018-May-11 01:58N 34°42' E 135°21'0 0.0
2018-May-11 01:28N 34°42' E 135°21'0 0.0
2018-May-11 00:58N 34°42' E 135°21'0 0.0
2018-May-11 00:25N 34°42' E 135°21'0 0.0
2018-May-10 23:58N 34°42' E 135°21'0 0.0
2018-May-10 23:28N 34°42' E 135°21'0 0.0
2018-May-10 22:58N 34°42' E 135°21'0 0.0
2018-May-10 22:28N 34°42' E 135°21'0 0.0
2018-May-10 21:58N 34°42' E 135°21'0 0.0
2018-May-10 21:28N 34°42' E 135°21'0 0.0
2018-May-10 20:58N 34°42' E 135°21'0 0.0
2018-May-10 20:28N 34°42' E 135°21'0 0.0
2018-May-10 19:58N 34°42' E 135°21'0 0.0
2018-May-10 19:28N 34°42' E 135°21'0 0.0
2018-May-10 18:58N 34°42' E 135°21'0 0.0
2018-May-10 18:25N 34°42' E 135°21'0 0.0
2018-May-10 17:58N 34°42' E 135°21'0 0.0
2018-May-10 17:28N 34°42' E 135°21'0 0.0
2018-May-10 16:58N 34°42' E 135°21'0 0.0
2018-May-10 16:28N 34°42' E 135°21'0 0.0
2018-May-10 15:58N 34°42' E 135°21'0 0.0
2018-May-10 15:28N 34°42' E 135°21'0 0.0
2018-May-10 14:58N 34°42' E 135°21'0 0.0
2018-May-10 14:28N 34°42' E 135°21'0 0.0
2018-May-10 13:58N 34°42' E 135°21'0 0.0
2018-May-10 13:28N 34°42' E 135°21'0 0.0
2018-May-10 12:58N 34°42' E 135°21'0 0.0
2018-May-10 12:25N 34°42' E 135°21'0 0.0
2018-May-10 11:58N 34°42' E 135°21'0 0.0
2018-May-10 11:28N 34°42' E 135°21'0 0.0
2018-May-10 10:58N 34°42' E 135°21'0 0.0
2018-May-10 10:28N 34°42' E 135°21'0 0.0
2018-May-10 09:58N 34°42' E 135°21'0 0.0
2018-May-10 09:28N 34°42' E 135°21'0 0.0
2018-May-10 08:58N 34°42' E 135°21'0 0.0
2018-May-10 08:28N 34°42' E 135°21'0 0.0
2018-May-10 07:58N 34°42' E 135°21'0 0.0
2018-May-10 07:28N 34°42' E 135°21'0 0.0
2018-May-10 06:58N 34°42' E 135°21'0 0.0
2018-May-10 06:28N 34°42' E 135°21'0 0.0
2018-May-10 05:58N 34°42' E 135°21'0 0.0
2018-May-10 05:28N 34°42' E 135°21'0 0.0
2018-May-10 04:58N 34°42' E 135°21'0 0.0
2018-May-10 04:28N 34°42' E 135°21'0 0.0
2018-May-10 03:58N 34°42' E 135°21'0 0.0
2018-May-10 03:28N 34°42' E 135°21'0 0.0
2018-May-10 02:58N 34°42' E 135°21'0 0.0
2018-May-10 02:28N 34°42' E 135°21'0 0.0
2018-May-10 01:58N 34°42' E 135°21'0 0.0
2018-May-10 01:28N 34°42' E 135°21'0 0.0
2018-May-10 00:58N 34°42' E 135°21'0 0.0
2018-May-10 00:28N 34°42' E 135°21'0 0.0
2018-May-09 23:58N 34°42' E 135°21'0 0.0
2018-May-09 23:28N 34°42' E 135°21'0 0.0
2018-May-09 22:58N 34°42' E 135°21'0 0.0
2018-May-09 22:28N 34°42' E 135°21'0 0.0
2018-May-09 21:58N 34°42' E 135°21'0 0.0
2018-May-09 21:28N 34°42' E 135°21'0 0.0
2018-May-09 20:58N 34°42' E 135°21'0 0.0
2018-May-09 20:28N 34°42' E 135°21'0 0.0
2018-May-09 19:58N 34°42' E 135°21'0 0.0
2018-May-09 19:28N 34°42' E 135°21'0 0.0
2018-May-09 18:58N 34°42' E 135°21'0 0.0
2018-May-09 18:28N 34°42' E 135°21'0 0.0
2018-May-09 17:58N 34°42' E 135°21'0 0.0
2018-May-09 17:28N 34°42' E 135°21'0 0.0
2018-May-09 16:58N 34°42' E 135°21'0 0.0
2018-May-09 16:28N 34°42' E 135°21'0 0.0
2018-May-09 15:58N 34°42' E 135°21'0 0.0
2018-May-09 15:28N 34°42' E 135°21'0 0.0
2018-May-09 14:58N 34°42' E 135°21'0 0.0
2018-May-09 14:28N 34°42' E 135°21'0 0.0
2018-May-09 13:58N 34°42' E 135°21'0 0.0
2018-May-09 13:28N 34°42' E 135°21'0 0.0
2018-May-09 12:58N 34°42' E 135°21'0 0.0
2018-May-09 12:28N 34°42' E 135°21'0 0.0
2018-May-09 11:58N 34°42' E 135°21'0 0.0
2018-May-09 11:28N 34°42' E 135°21'0 0.0
2018-May-09 10:58N 34°42' E 135°21'0 0.0
2018-May-09 10:28N 34°42' E 135°21'0 0.0
2018-May-09 09:58N 34°42' E 135°21'0 0.0
2018-May-09 09:28N 34°42' E 135°21'0 0.0
2018-May-09 08:58N 34°42' E 135°21'0 0.0
2018-May-09 08:25N 34°42' E 135°21'0 0.0
2018-May-09 07:58N 34°42' E 135°21'0 0.0
2018-May-09 07:25N 34°42' E 135°21'0 0.0
2018-May-09 06:58N 34°42' E 135°21'0 0.0
2018-May-09 06:28N 34°42' E 135°21'0 0.0
2018-May-09 05:55N 34°42' E 135°21'0 0.0
2018-May-09 05:28N 34°42' E 135°21'0 0.0
2018-May-09 04:58N 34°42' E 135°21'0 0.0
2018-May-09 04:28N 34°42' E 135°21'0 0.0
2018-May-09 03:58N 34°42' E 135°21'0 0.0
2018-May-09 03:25N 34°42' E 135°21'0 0.0
2018-May-09 02:58N 34°42' E 135°21'0 0.0
2018-May-09 02:28N 34°42' E 135°21'0 0.0
2018-May-09 01:58N 34°42' E 135°21'0 0.0
2018-May-09 01:28N 34°42' E 135°21'0 0.0
2018-May-09 00:58N 34°42' E 135°21'0 0.0
2018-May-09 00:28N 34°42' E 135°21'0 0.0
2018-May-08 23:58N 34°42' E 135°21'0 0.0
2018-May-08 23:28N 34°42' E 135°21'0 0.0
2018-May-08 22:58N 34°42' E 135°21'0 0.0
2018-May-08 22:28N 34°42' E 135°21'0 0.0
2018-May-08 21:58N 34°42' E 135°21'0 0.0
2018-May-08 21:28N 34°42' E 135°21'0 0.0
2018-May-08 20:58N 34°42' E 135°21'0 0.0
2018-May-08 20:28N 34°42' E 135°21'0 0.0
2018-May-08 19:58N 34°42' E 135°21'0 0.0
2018-May-08 19:28N 34°42' E 135°21'0 0.0
2018-May-08 18:58N 34°42' E 135°21'0 0.0
2018-May-08 18:28N 34°42' E 135°21'0 0.0
2018-May-08 17:58N 34°42' E 135°21'0 0.0
2018-May-08 17:28N 34°42' E 135°21'0 0.0
2018-May-08 16:58N 34°42' E 135°21'0 0.0
2018-May-08 16:28N 34°42' E 135°21'0 0.0
2018-May-08 15:55N 34°42' E 135°21'0 0.0
2018-May-08 15:28N 34°42' E 135°21'0 0.0
2018-May-08 14:58N 34°42' E 135°21'0 0.0
2018-May-08 14:28N 34°42' E 135°21'0 0.0
2018-May-08 13:58N 34°42' E 135°21'0 0.0
2018-May-08 13:28N 34°42' E 135°21'0 0.0
2018-May-08 12:58N 34°42' E 135°21'0 0.0
2018-May-08 12:28N 34°42' E 135°21'0 0.0
2018-May-08 11:58N 34°42' E 135°21'0 0.0
2018-May-08 11:28N 34°42' E 135°21'0 0.0
2018-May-08 10:58N 34°42' E 135°21'0 0.0
2018-May-08 10:28N 34°42' E 135°21'0 0.0
2018-May-08 09:57N 34°42' E 135°21'0 0.0
2018-May-08 09:28N 34°42' E 135°21'0 0.0
2018-May-08 08:57N 34°42' E 135°21'0 0.0
2018-May-08 08:28N 34°42' E 135°21'0 0.0
2018-May-08 07:58N 34°42' E 135°21'0 0.0
2018-May-08 07:28N 34°42' E 135°21'0 0.0
2018-May-08 06:58N 34°42' E 135°21'0 0.0
2018-May-08 06:28N 34°42' E 135°21'0 0.0
2018-May-08 05:58N 34°42' E 135°21'0 0.0
2018-May-08 05:28N 34°42' E 135°21'0 0.0
2018-May-08 04:58N 34°42' E 135°21'0 0.0
2018-May-08 04:25N 34°42' E 135°21'0 0.0
2018-May-08 03:58N 34°42' E 135°21'0 0.0
2018-May-08 03:28N 34°42' E 135°21'0 0.0
2018-May-08 02:58N 34°42' E 135°21'0 0.0
2018-May-08 02:25N 34°42' E 135°21'0 0.0
2018-May-08 02:00N 34°42' E 135°21'0 0.0
2018-May-08 01:27N 34°42' E 135°21'0 0.0
2018-May-08 01:00N 34°42' E 135°21'0 0.0
2018-May-08 00:25N 34°42' E 135°21'0 0.0
2018-May-08 00:01N 34°42' E 135°21'0 0.0
2018-May-07 23:27N 34°42' E 135°21'0 0.0
2018-May-07 22:58N 34°42' E 135°21'0 0.0
2018-May-07 22:28N 34°42' E 135°21'0 0.0
2018-May-07 21:57N 34°42' E 135°21'0 0.0
2018-May-07 21:31N 34°42' E 135°21'0 0.0
2018-May-07 20:58N 34°42' E 135°21'0 0.0
2018-May-07 20:28N 34°42' E 135°21'0 0.0
2018-May-07 19:58N 34°42' E 135°21'0 0.0
2018-May-07 19:27N 34°42' E 135°21'0 0.0
2018-May-07 18:58N 34°42' E 135°21'0 0.0
2018-May-07 18:28N 34°42' E 135°21'0 0.0
2018-May-07 18:01N 34°42' E 135°21'0 0.0
2018-May-07 17:30N 34°42' E 135°21'0 0.0
2018-May-07 16:57N 34°42' E 135°21'0 0.0
2018-May-07 16:30N 34°42' E 135°21'0 0.0
2018-May-07 15:58N 34°42' E 135°21'0 0.0
2018-May-07 15:27N 34°42' E 135°21'0 0.0
2018-May-07 15:00N 34°42' E 135°21'0 0.0
2018-May-07 14:30N 34°42' E 135°21'0 0.0
2018-May-07 14:01N 34°42' E 135°21'0 0.0
2018-May-07 13:31N 34°42' E 135°21'0 0.0
2018-May-07 13:01N 34°42' E 135°21'0 0.0
2018-May-07 12:30N 34°42' E 135°21'0 0.0
2018-May-07 11:57N 34°42' E 135°21'0 0.0
2018-May-07 11:30N 34°42' E 135°21'0 0.0
2018-May-07 11:00N 34°42' E 135°21'0 0.0
2018-May-07 10:30N 34°42' E 135°21'0 0.0
2018-May-07 10:00N 34°42' E 135°21'0 0.0
2018-May-07 09:30N 34°42' E 135°21'0 0.0
2018-May-07 09:01N 34°42' E 135°21'0 0.0
2018-May-07 08:27N 34°42' E 135°21'0 0.0
2018-May-07 08:01N 34°42' E 135°21'0 0.7
2018-May-07 07:30N 34°42' E 135°21'4 8.7
2018-May-07 07:00N 34°38' E 135°18'5 9.3
2018-May-07 06:30N 34°35' E 135°13'510.5
2018-May-07 06:00N 34°35' E 135°07'5 9.7
2018-May-07 05:30N 34°37' E 135°02'4 8.1
2018-May-07 05:00N 34°36' E 134°57'5 9.2
2018-May-07 04:30N 34°38' E 134°51'5 9.8
2018-May-07 04:00N 34°39' E 134°45'5 9.9
2018-May-07 03:30N 34°40' E 134°40'510.0
2018-May-07 03:00N 34°42' E 134°34'5 9.7
2018-May-07 02:29N 34°44' E 134°28'  

Dump ship's entire track history